Portada
METAR-TAF:

METAR-TAF

Aeropuertos :

Altenstadt, Alemania

latitud: 47-50N, longitud: 010-52E, altitud: 739 m

Observación

El informe se hizo hace 57 minutos, a las 10:20 UTC
Viento 10 kt del noreste
Temperatura 3°C
Humedad 60%
Presión 1021 hPa
Visibilidad 10 km o más
Nubes dispersas a una altura de 3500 ft

METAR: ETHA 161020Z 04010KT 9999 SCT035 03/M04 Q1021 BLU+

Hora: 13:17 (11:17 UTC)

Pronóstico

El informe se hizo hace 7 horas y 17 minutos, a las 04:00 UTC
Pronóstico válido del 16 a las 05 UTC al 16 a las 14 UTC
Viento 7 kt del este-noreste
Visibilidad 10 km o más
Escasas nubes a una altura de 1000 ft
Nubes dispersas a una altura de 3000 ft

TAF: ETHA 160400Z 1605/1614 07007KT 9999 NSW FEW010 SCT030

Observaciones y pronósticos meteorológicos de más de 4000 aeropuertos (mensajes METAR y TAF).

Los puntos amarillos y rojos representan las estaciones disponibles.

Ponga el ratón en el punto deseado para ver el nombre de la estación.

Haga clic para ver las observaciones y los pronósticos meteorológicos.

Para cambiar el mapa : haga clic en los botones verdes con una cruz de color negro para hacer un zoom, en el botón verde con un guión para alejar o en las flechas verdes para mapas adyacentes.


METAR-TAF: